sensor_id;sensor_type;location;lat;lon;timestamp;P1;durP1;ratioP1;P2;durP2;ratioP2
58681;SDS011;44460;40.162;18.294;2022-09-09T00:00:16;23.30;;;6.35;;
58681;SDS011;44460;40.162;18.294;2022-09-09T00:03:00;22.00;;;6.40;;
58681;SDS011;44460;40.162;18.294;2022-09-09T00:07:53;19.45;;;5.75;;
58681;SDS011;44460;40.162;18.294;2022-09-09T00:21:06;26.23;;;6.18;;
58681;SDS011;44460;40.162;18.294;2022-09-09T00:28:39;23.30;;;6.67;;
58681;SDS011;44460;40.162;18.294;2022-09-09T00:31:15;18.13;;;6.35;;
58681;SDS011;44460;40.162;18.294;2022-09-09T00:33:41;22.13;;;5.50;;
58681;SDS011;44460;40.162;18.294;2022-09-09T00:36:15;21.88;;;6.10;;
58681;SDS011;44460;40.162;18.294;2022-09-09T00:38:45;18.88;;;6.25;;
58681;SDS011;44460;40.162;18.294;2022-09-09T00:43:53;29.17;;;6.72;;
58681;SDS011;44460;40.162;18.294;2022-09-09T00:46:40;16.05;;;6.30;;
58681;SDS011;44460;40.162;18.294;2022-09-09T00:54:14;17.27;;;6.50;;
58681;SDS011;44460;40.162;18.294;2022-09-09T01:02:04;24.80;;;5.82;;
58681;SDS011;44460;40.162;18.294;2022-09-09T01:04:34;20.98;;;6.22;;
58681;SDS011;44460;40.162;18.294;2022-09-09T01:07:35;21.88;;;6.13;;
58681;SDS011;44460;40.162;18.294;2022-09-09T01:10:00;19.17;;;6.28;;
58681;SDS011;44460;40.162;18.294;2022-09-09T01:12:29;16.33;;;5.55;;
58681;SDS011;44460;40.162;18.294;2022-09-09T01:15:01;19.02;;;6.30;;
58681;SDS011;44460;40.162;18.294;2022-09-09T01:28:04;16.35;;;5.65;;
58681;SDS011;44460;40.162;18.294;2022-09-09T01:30:32;23.38;;;6.63;;
58681;SDS011;44460;40.162;18.294;2022-09-09T01:32:59;19.50;;;7.03;;
58681;SDS011;44460;40.162;18.294;2022-09-09T01:37:56;30.75;;;6.68;;
58681;SDS011;44460;40.162;18.294;2022-09-09T01:40:22;22.05;;;6.68;;
58681;SDS011;44460;40.162;18.294;2022-09-09T01:42:48;24.15;;;6.45;;
58681;SDS011;44460;40.162;18.294;2022-09-09T01:45:14;22.65;;;6.65;;
58681;SDS011;44460;40.162;18.294;2022-09-09T01:47:39;21.77;;;5.72;;
58681;SDS011;44460;40.162;18.294;2022-09-09T01:50:15;15.77;;;5.53;;
58681;SDS011;44460;40.162;18.294;2022-09-09T01:52:40;19.65;;;6.30;;
58681;SDS011;44460;40.162;18.294;2022-09-09T01:55:10;21.77;;;6.35;;
58681;SDS011;44460;40.162;18.294;2022-09-09T01:57:57;19.38;;;6.05;;
58681;SDS011;44460;40.162;18.294;2022-09-09T02:00:24;18.92;;;6.93;;
58681;SDS011;44460;40.162;18.294;2022-09-09T02:05:43;28.85;;;6.80;;
58681;SDS011;44460;40.162;18.294;2022-09-09T02:08:23;20.38;;;6.13;;
58681;SDS011;44460;40.162;18.294;2022-09-09T02:11:06;20.48;;;6.10;;
58681;SDS011;44460;40.162;18.294;2022-09-09T02:13:40;21.23;;;7.10;;
58681;SDS011;44460;40.162;18.294;2022-09-09T02:16:12;18.60;;;6.38;;
58681;SDS011;44460;40.162;18.294;2022-09-09T02:18:55;20.13;;;5.63;;
58681;SDS011;44460;40.162;18.294;2022-09-09T02:21:32;18.48;;;6.07;;
58681;SDS011;44460;40.162;18.294;2022-09-09T02:24:00;24.25;;;6.45;;
58681;SDS011;44460;40.162;18.294;2022-09-09T02:26:31;21.17;;;6.25;;
58681;SDS011;44460;40.162;18.294;2022-09-09T02:29:03;21.73;;;5.82;;
58681;SDS011;44460;40.162;18.294;2022-09-09T02:34:00;23.75;;;6.60;;
58681;SDS011;44460;40.162;18.294;2022-09-09T02:36:28;27.77;;;6.25;;
58681;SDS011;44460;40.162;18.294;2022-09-09T02:38:55;20.17;;;6.30;;
58681;SDS011;44460;40.162;18.294;2022-09-09T02:41:32;25.70;;;6.32;;
58681;SDS011;44460;40.162;18.294;2022-09-09T02:43:59;20.33;;;5.90;;
58681;SDS011;44460;40.162;18.294;2022-09-09T02:53:59;24.52;;;6.75;;
58681;SDS011;44460;40.162;18.294;2022-09-09T02:56:30;21.77;;;6.28;;
58681;SDS011;44460;40.162;18.294;2022-09-09T02:59:02;16.63;;;5.82;;
58681;SDS011;44460;40.162;18.294;2022-09-09T03:01:28;19.20;;;5.85;;
58681;SDS011;44460;40.162;18.294;2022-09-09T03:03:54;18.73;;;6.30;;
58681;SDS011;44460;40.162;18.294;2022-09-09T03:06:20;25.13;;;7.18;;
58681;SDS011;44460;40.162;18.294;2022-09-09T03:08:52;26.25;;;7.20;;
58681;SDS011;44460;40.162;18.294;2022-09-09T03:11:22;18.73;;;6.07;;
58681;SDS011;44460;40.162;18.294;2022-09-09T03:13:48;16.92;;;6.63;;
58681;SDS011;44460;40.162;18.294;2022-09-09T03:16:14;17.77;;;6.07;;
58681;SDS011;44460;40.162;18.294;2022-09-09T03:18:44;18.25;;;5.93;;
58681;SDS011;44460;40.162;18.294;2022-09-09T03:21:10;20.17;;;6.10;;
58681;SDS011;44460;40.162;18.294;2022-09-09T03:23:37;23.90;;;6.83;;
58681;SDS011;44460;40.162;18.294;2022-09-09T03:26:03;17.02;;;6.05;;
58681;SDS011;44460;40.162;18.294;2022-09-09T03:28:37;21.63;;;6.30;;
58681;SDS011;44460;40.162;18.294;2022-09-09T03:31:04;22.10;;;6.05;;
58681;SDS011;44460;40.162;18.294;2022-09-09T03:33:34;17.23;;;5.68;;
58681;SDS011;44460;40.162;18.294;2022-09-09T03:36:02;19.35;;;6.45;;
58681;SDS011;44460;40.162;18.294;2022-09-09T03:38:28;16.88;;;6.07;;
58681;SDS011;44460;40.162;18.294;2022-09-09T03:40:54;18.75;;;6.35;;
58681;SDS011;44460;40.162;18.294;2022-09-09T03:43:21;19.73;;;5.57;;
58681;SDS011;44460;40.162;18.294;2022-09-09T03:45:47;20.23;;;6.70;;
58681;SDS011;44460;40.162;18.294;2022-09-09T03:48:14;23.52;;;6.47;;
58681;SDS011;44460;40.162;18.294;2022-09-09T03:50:44;16.37;;;5.87;;
58681;SDS011;44460;40.162;18.294;2022-09-09T03:53:09;18.70;;;6.22;;
58681;SDS011;44460;40.162;18.294;2022-09-09T03:55:35;16.85;;;5.95;;
58681;SDS011;44460;40.162;18.294;2022-09-09T03:58:01;21.52;;;6.60;;
58681;SDS011;44460;40.162;18.294;2022-09-09T04:00:26;16.77;;;5.60;;
58681;SDS011;44460;40.162;18.294;2022-09-09T04:02:53;19.67;;;5.90;;
58681;SDS011;44460;40.162;18.294;2022-09-09T04:05:20;19.23;;;5.47;;
58681;SDS011;44460;40.162;18.294;2022-09-09T04:07:47;18.83;;;5.78;;
58681;SDS011;44460;40.162;18.294;2022-09-09T04:10:12;19.23;;;5.82;;
58681;SDS011;44460;40.162;18.294;2022-09-09T04:12:39;22.80;;;5.95;;
58681;SDS011;44460;40.162;18.294;2022-09-09T04:15:04;22.80;;;5.22;;
58681;SDS011;44460;40.162;18.294;2022-09-09T04:17:31;17.08;;;5.65;;
58681;SDS011;44460;40.162;18.294;2022-09-09T04:19:56;20.27;;;6.18;;
58681;SDS011;44460;40.162;18.294;2022-09-09T04:22:23;16.30;;;5.50;;
58681;SDS011;44460;40.162;18.294;2022-09-09T04:24:48;17.98;;;5.93;;
58681;SDS011;44460;40.162;18.294;2022-09-09T04:27:14;25.75;;;5.45;;
58681;SDS011;44460;40.162;18.294;2022-09-09T04:29:40;14.35;;;5.55;;
58681;SDS011;44460;40.162;18.294;2022-09-09T04:32:07;21.20;;;6.05;;
58681;SDS011;44460;40.162;18.294;2022-09-09T04:34:32;23.10;;;6.30;;
58681;SDS011;44460;40.162;18.294;2022-09-09T04:36:58;19.85;;;5.95;;
58681;SDS011;44460;40.162;18.294;2022-09-09T04:39:24;22.17;;;5.55;;
58681;SDS011;44460;40.162;18.294;2022-09-09T04:41:50;21.15;;;5.25;;
58681;SDS011;44460;40.162;18.294;2022-09-09T04:44:15;22.85;;;6.13;;
58681;SDS011;44460;40.162;18.294;2022-09-09T04:46:41;18.90;;;6.32;;
58681;SDS011;44460;40.162;18.294;2022-09-09T04:49:06;20.30;;;5.95;;
58681;SDS011;44460;40.162;18.294;2022-09-09T04:51:33;21.65;;;5.55;;
58681;SDS011;44460;40.162;18.294;2022-09-09T04:53:58;19.10;;;5.70;;
58681;SDS011;44460;40.162;18.294;2022-09-09T04:56:24;12.32;;;4.78;;
58681;SDS011;44460;40.162;18.294;2022-09-09T04:58:55;19.67;;;5.28;;
58681;SDS011;44460;40.162;18.294;2022-09-09T05:01:25;23.65;;;5.90;;
58681;SDS011;44460;40.162;18.294;2022-09-09T05:03:58;18.23;;;5.28;;
58681;SDS011;44460;40.162;18.294;2022-09-09T05:06:23;20.23;;;5.68;;
58681;SDS011;44460;40.162;18.294;2022-09-09T05:08:55;19.92;;;5.53;;
58681;SDS011;44460;40.162;18.294;2022-09-09T05:11:27;16.20;;;5.10;;
58681;SDS011;44460;40.162;18.294;2022-09-09T05:13:58;19.95;;;5.30;;
58681;SDS011;44460;40.162;18.294;2022-09-09T05:16:24;20.25;;;5.13;;
58681;SDS011;44460;40.162;18.294;2022-09-09T05:18:50;19.13;;;5.70;;
58681;SDS011;44460;40.162;18.294;2022-09-09T05:21:17;22.50;;;5.43;;
58681;SDS011;44460;40.162;18.294;2022-09-09T05:23:44;22.02;;;6.03;;
58681;SDS011;44460;40.162;18.294;2022-09-09T05:26:14;22.05;;;5.60;;
58681;SDS011;44460;40.162;18.294;2022-09-09T05:28:40;23.60;;;5.00;;
58681;SDS011;44460;40.162;18.294;2022-09-09T05:31:07;22.08;;;5.60;;
58681;SDS011;44460;40.162;18.294;2022-09-09T05:33:38;17.02;;;5.47;;
58681;SDS011;44460;40.162;18.294;2022-09-09T05:36:07;23.15;;;5.13;;
58681;SDS011;44460;40.162;18.294;2022-09-09T05:40:59;18.13;;;5.38;;
58681;SDS011;44460;40.162;18.294;2022-09-09T05:43:25;23.20;;;5.78;;
58681;SDS011;44460;40.162;18.294;2022-09-09T05:46:00;18.67;;;5.18;;
58681;SDS011;44460;40.162;18.294;2022-09-09T05:48:30;23.98;;;5.88;;
58681;SDS011;44460;40.162;18.294;2022-09-09T05:50:57;24.00;;;5.63;;
58681;SDS011;44460;40.162;18.294;2022-09-09T05:53:23;21.35;;;5.88;;
58681;SDS011;44460;40.162;18.294;2022-09-09T05:55:49;19.85;;;5.45;;
58681;SDS011;44460;40.162;18.294;2022-09-09T05:58:15;15.70;;;5.45;;
58681;SDS011;44460;40.162;18.294;2022-09-09T06:00:42;24.13;;;5.90;;
58681;SDS011;44460;40.162;18.294;2022-09-09T06:05:35;20.00;;;5.45;;
58681;SDS011;44460;40.162;18.294;2022-09-09T06:08:00;22.10;;;5.93;;
58681;SDS011;44460;40.162;18.294;2022-09-09T06:10:26;20.58;;;4.68;;
58681;SDS011;44460;40.162;18.294;2022-09-09T06:12:53;17.60;;;4.67;;
58681;SDS011;44460;40.162;18.294;2022-09-09T06:15:19;20.38;;;6.25;;
58681;SDS011;44460;40.162;18.294;2022-09-09T06:17:45;17.08;;;4.93;;
58681;SDS011;44460;40.162;18.294;2022-09-09T06:20:11;21.35;;;4.80;;
58681;SDS011;44460;40.162;18.294;2022-09-09T06:22:39;19.23;;;5.57;;
58681;SDS011;44460;40.162;18.294;2022-09-09T06:25:05;20.58;;;6.13;;
58681;SDS011;44460;40.162;18.294;2022-09-09T06:27:30;19.77;;;5.10;;
58681;SDS011;44460;40.162;18.294;2022-09-09T06:29:56;19.13;;;5.40;;
58681;SDS011;44460;40.162;18.294;2022-09-09T06:32:22;20.40;;;4.68;;
58681;SDS011;44460;40.162;18.294;2022-09-09T06:34:48;19.90;;;4.90;;
58681;SDS011;44460;40.162;18.294;2022-09-09T06:37:14;21.15;;;5.40;;
58681;SDS011;44460;40.162;18.294;2022-09-09T06:39:46;20.85;;;5.35;;
58681;SDS011;44460;40.162;18.294;2022-09-09T06:42:11;19.35;;;4.82;;
58681;SDS011;44460;40.162;18.294;2022-09-09T06:44:51;19.02;;;4.85;;
58681;SDS011;44460;40.162;18.294;2022-09-09T06:47:28;19.80;;;5.35;;
58681;SDS011;44460;40.162;18.294;2022-09-09T06:49:55;17.58;;;5.32;;
58681;SDS011;44460;40.162;18.294;2022-09-09T06:52:21;32.67;;;5.90;;
58681;SDS011;44460;40.162;18.294;2022-09-09T06:54:47;21.20;;;5.10;;
58681;SDS011;44460;40.162;18.294;2022-09-09T06:59:40;24.38;;;6.18;;
58681;SDS011;44460;40.162;18.294;2022-09-09T07:02:07;18.85;;;4.60;;
58681;SDS011;44460;40.162;18.294;2022-09-09T07:04:33;18.55;;;5.30;;
58681;SDS011;44460;40.162;18.294;2022-09-09T07:06:59;19.38;;;5.22;;
58681;SDS011;44460;40.162;18.294;2022-09-09T07:09:26;15.88;;;5.10;;
58681;SDS011;44460;40.162;18.294;2022-09-09T07:11:53;19.27;;;4.80;;
58681;SDS011;44460;40.162;18.294;2022-09-09T07:14:20;17.35;;;5.10;;
58681;SDS011;44460;40.162;18.294;2022-09-09T07:16:53;19.98;;;5.35;;
58681;SDS011;44460;40.162;18.294;2022-09-09T07:19:18;21.48;;;4.97;;
58681;SDS011;44460;40.162;18.294;2022-09-09T07:21:47;21.25;;;5.25;;
58681;SDS011;44460;40.162;18.294;2022-09-09T07:24:16;21.83;;;4.95;;
58681;SDS011;44460;40.162;18.294;2022-09-09T07:26:43;23.57;;;4.83;;
58681;SDS011;44460;40.162;18.294;2022-09-09T07:29:10;23.00;;;5.55;;
58681;SDS011;44460;40.162;18.294;2022-09-09T07:31:41;44.35;;;7.15;;
58681;SDS011;44460;40.162;18.294;2022-09-09T07:34:10;16.83;;;4.45;;
58681;SDS011;44460;40.162;18.294;2022-09-09T07:36:38;21.17;;;5.40;;
58681;SDS011;44460;40.162;18.294;2022-09-09T07:39:07;23.08;;;5.18;;
58681;SDS011;44460;40.162;18.294;2022-09-09T07:41:34;17.80;;;5.22;;
58681;SDS011;44460;40.162;18.294;2022-09-09T07:44:05;45.72;;;6.68;;
58681;SDS011;44460;40.162;18.294;2022-09-09T07:46:32;26.48;;;6.50;;
58681;SDS011;44460;40.162;18.294;2022-09-09T07:48:59;17.45;;;5.22;;
58681;SDS011;44460;40.162;18.294;2022-09-09T07:51:28;28.45;;;6.07;;
58681;SDS011;44460;40.162;18.294;2022-09-09T07:53:56;20.38;;;4.97;;
58681;SDS011;44460;40.162;18.294;2022-09-09T07:56:23;21.98;;;5.57;;
58681;SDS011;44460;40.162;18.294;2022-09-09T07:58:51;19.63;;;5.38;;
58681;SDS011;44460;40.162;18.294;2022-09-09T08:01:31;16.15;;;5.28;;
58681;SDS011;44460;40.162;18.294;2022-09-09T08:03:59;22.63;;;5.32;;
58681;SDS011;44460;40.162;18.294;2022-09-09T08:06:27;27.75;;;5.13;;
58681;SDS011;44460;40.162;18.294;2022-09-09T08:08:53;22.98;;;5.50;;
58681;SDS011;44460;40.162;18.294;2022-09-09T08:11:22;17.30;;;4.80;;
58681;SDS011;44460;40.162;18.294;2022-09-09T08:16:15;18.80;;;5.03;;
58681;SDS011;44460;40.162;18.294;2022-09-09T08:18:41;20.75;;;5.45;;
58681;SDS011;44460;40.162;18.294;2022-09-09T08:21:14;20.10;;;5.63;;
58681;SDS011;44460;40.162;18.294;2022-09-09T08:23:40;18.55;;;5.20;;
58681;SDS011;44460;40.162;18.294;2022-09-09T08:28:34;18.60;;;5.22;;
58681;SDS011;44460;40.162;18.294;2022-09-09T08:31:10;52.58;;;8.98;;
58681;SDS011;44460;40.162;18.294;2022-09-09T08:33:37;31.33;;;6.15;;
58681;SDS011;44460;40.162;18.294;2022-09-09T08:36:05;21.17;;;5.72;;
58681;SDS011;44460;40.162;18.294;2022-09-09T08:38:31;32.97;;;6.53;;
58681;SDS011;44460;40.162;18.294;2022-09-09T08:41:03;24.38;;;5.75;;
58681;SDS011;44460;40.162;18.294;2022-09-09T08:43:32;23.27;;;5.80;;
58681;SDS011;44460;40.162;18.294;2022-09-09T08:50:51;26.08;;;5.03;;
58681;SDS011;44460;40.162;18.294;2022-09-09T08:58:17;23.30;;;6.33;;
58681;SDS011;44460;40.162;18.294;2022-09-09T09:00:55;30.60;;;5.95;;
58681;SDS011;44460;40.162;18.294;2022-09-09T09:03:28;20.60;;;5.28;;
58681;SDS011;44460;40.162;18.294;2022-09-09T09:10:53;25.50;;;5.10;;
58681;SDS011;44460;40.162;18.294;2022-09-09T09:16:13;20.05;;;5.32;;
58681;SDS011;44460;40.162;18.294;2022-09-09T09:18:40;16.50;;;5.35;;
58681;SDS011;44460;40.162;18.294;2022-09-09T09:24:07;24.77;;;5.47;;
58681;SDS011;44460;40.162;18.294;2022-09-09T09:26:37;25.05;;;5.45;;
58681;SDS011;44460;40.162;18.294;2022-09-09T09:29:13;26.33;;;5.47;;
58681;SDS011;44460;40.162;18.294;2022-09-09T09:31:53;18.80;;;5.40;;
58681;SDS011;44460;40.162;18.294;2022-09-09T09:34:21;20.67;;;5.18;;
58681;SDS011;44460;40.162;18.294;2022-09-09T09:39:25;27.25;;;6.25;;
58681;SDS011;44460;40.162;18.294;2022-09-09T09:41:51;25.20;;;5.53;;
58681;SDS011;44460;40.162;18.294;2022-09-09T09:44:21;23.67;;;5.32;;
58681;SDS011;44460;40.162;18.294;2022-09-09T09:46:48;25.08;;;6.35;;
58681;SDS011;44460;40.162;18.294;2022-09-09T09:49:14;22.65;;;5.25;;
58681;SDS011;44460;40.162;18.294;2022-09-09T09:51:41;21.48;;;5.53;;
58681;SDS011;44460;40.162;18.294;2022-09-09T09:56:35;27.70;;;5.45;;
58681;SDS011;44460;40.162;18.294;2022-09-09T09:59:03;21.92;;;5.28;;
58681;SDS011;44460;40.162;18.294;2022-09-09T10:01:34;20.30;;;5.10;;
58681;SDS011;44460;40.162;18.294;2022-09-09T10:06:39;23.55;;;5.30;;
58681;SDS011;44460;40.162;18.294;2022-09-09T10:09:22;20.07;;;5.47;;
58681;SDS011;44460;40.162;18.294;2022-09-09T10:12:00;25.05;;;5.70;;
58681;SDS011;44460;40.162;18.294;2022-09-09T10:14:40;29.95;;;5.65;;
58681;SDS011;44460;40.162;18.294;2022-09-09T10:17:30;20.67;;;5.35;;
58681;SDS011;44460;40.162;18.294;2022-09-09T10:20:06;22.80;;;5.07;;
58681;SDS011;44460;40.162;18.294;2022-09-09T10:22:39;32.28;;;6.15;;
58681;SDS011;44460;40.162;18.294;2022-09-09T10:32:40;23.35;;;5.32;;
58681;SDS011;44460;40.162;18.294;2022-09-09T10:40:32;24.80;;;5.55;;
58681;SDS011;44460;40.162;18.294;2022-09-09T10:43:10;28.33;;;5.10;;
58681;SDS011;44460;40.162;18.294;2022-09-09T10:55:56;33.05;;;6.03;;
58681;SDS011;44460;40.162;18.294;2022-09-09T10:58:30;30.20;;;5.25;;
58681;SDS011;44460;40.162;18.294;2022-09-09T11:00:59;27.70;;;5.47;;
58681;SDS011;44460;40.162;18.294;2022-09-09T11:03:30;25.27;;;5.07;;
58681;SDS011;44460;40.162;18.294;2022-09-09T11:06:11;23.63;;;5.47;;
58681;SDS011;44460;40.162;18.294;2022-09-09T11:08:38;27.13;;;5.68;;
58681;SDS011;44460;40.162;18.294;2022-09-09T11:19:04;21.88;;;5.13;;
58681;SDS011;44460;40.162;18.294;2022-09-09T11:21:36;31.55;;;6.20;;
58681;SDS011;44460;40.162;18.294;2022-09-09T11:24:04;27.60;;;5.05;;
58681;SDS011;44460;40.162;18.294;2022-09-09T11:26:37;25.50;;;5.60;;
58681;SDS011;44460;40.162;18.294;2022-09-09T11:34:19;25.40;;;6.25;;
58681;SDS011;44460;40.162;18.294;2022-09-09T11:41:49;34.55;;;6.28;;
58681;SDS011;44460;40.162;18.294;2022-09-09T11:44:19;24.70;;;4.70;;
58681;SDS011;44460;40.162;18.294;2022-09-09T11:46:49;29.48;;;6.32;;
58681;SDS011;44460;40.162;18.294;2022-09-09T11:49:26;28.92;;;6.20;;
58681;SDS011;44460;40.162;18.294;2022-09-09T11:51:53;33.35;;;6.22;;
58681;SDS011;44460;40.162;18.294;2022-09-09T11:56:48;28.25;;;6.25;;
58681;SDS011;44460;40.162;18.294;2022-09-09T12:01:45;27.23;;;6.10;;
58681;SDS011;44460;40.162;18.294;2022-09-09T12:04:21;26.08;;;6.07;;
58681;SDS011;44460;40.162;18.294;2022-09-09T12:07:01;25.60;;;6.32;;
58681;SDS011;44460;40.162;18.294;2022-09-09T12:14:38;30.10;;;6.95;;
58681;SDS011;44460;40.162;18.294;2022-09-09T12:17:41;29.42;;;7.00;;
58681;SDS011;44460;40.162;18.294;2022-09-09T12:30:15;28.85;;;6.20;;
58681;SDS011;44460;40.162;18.294;2022-09-09T12:32:41;24.02;;;5.78;;
58681;SDS011;44460;40.162;18.294;2022-09-09T12:35:22;28.77;;;6.13;;
58681;SDS011;44460;40.162;18.294;2022-09-09T12:37:52;26.80;;;6.47;;
58681;SDS011;44460;40.162;18.294;2022-09-09T12:40:20;22.52;;;5.82;;
58681;SDS011;44460;40.162;18.294;2022-09-09T12:42:46;25.50;;;6.72;;
58681;SDS011;44460;40.162;18.294;2022-09-09T12:45:17;28.70;;;6.10;;
58681;SDS011;44460;40.162;18.294;2022-09-09T12:50:18;32.83;;;6.18;;
58681;SDS011;44460;40.162;18.294;2022-09-09T12:52:50;39.60;;;6.38;;
58681;SDS011;44460;40.162;18.294;2022-09-09T12:55:21;22.65;;;5.95;;
58681;SDS011;44460;40.162;18.294;2022-09-09T12:57:47;30.38;;;6.32;;
58681;SDS011;44460;40.162;18.294;2022-09-09T13:00:16;42.33;;;7.57;;
58681;SDS011;44460;40.162;18.294;2022-09-09T13:02:58;29.15;;;6.72;;
58681;SDS011;44460;40.162;18.294;2022-09-09T13:07:50;35.20;;;7.25;;
58681;SDS011;44460;40.162;18.294;2022-09-09T13:10:20;31.48;;;6.18;;
58681;SDS011;44460;40.162;18.294;2022-09-09T13:12:46;26.42;;;5.82;;
58681;SDS011;44460;40.162;18.294;2022-09-09T13:15:14;26.38;;;6.40;;
58681;SDS011;44460;40.162;18.294;2022-09-09T13:17:41;37.72;;;8.10;;
58681;SDS011;44460;40.162;18.294;2022-09-09T13:20:15;35.42;;;6.53;;
58681;SDS011;44460;40.162;18.294;2022-09-09T13:22:41;59.80;;;8.70;;
58681;SDS011;44460;40.162;18.294;2022-09-09T13:27:39;36.08;;;6.80;;
58681;SDS011;44460;40.162;18.294;2022-09-09T13:30:22;33.85;;;6.53;;
58681;SDS011;44460;40.162;18.294;2022-09-09T13:35:29;32.40;;;6.60;;
58681;SDS011;44460;40.162;18.294;2022-09-09T13:37:55;21.00;;;6.43;;
58681;SDS011;44460;40.162;18.294;2022-09-09T13:40:21;26.08;;;6.72;;
58681;SDS011;44460;40.162;18.294;2022-09-09T13:42:55;31.58;;;6.90;;
58681;SDS011;44460;40.162;18.294;2022-09-09T13:45:22;24.25;;;5.90;;
58681;SDS011;44460;40.162;18.294;2022-09-09T13:47:49;23.20;;;5.88;;
58681;SDS011;44460;40.162;18.294;2022-09-09T13:52:49;28.48;;;6.40;;
58681;SDS011;44460;40.162;18.294;2022-09-09T13:55:16;30.63;;;6.07;;
58681;SDS011;44460;40.162;18.294;2022-09-09T13:57:55;21.67;;;6.28;;
58681;SDS011;44460;40.162;18.294;2022-09-09T14:00:21;30.92;;;7.15;;
58681;SDS011;44460;40.162;18.294;2022-09-09T14:02:48;31.23;;;7.05;;
58681;SDS011;44460;40.162;18.294;2022-09-09T14:05:13;30.83;;;7.07;;
58681;SDS011;44460;40.162;18.294;2022-09-09T14:07:41;29.42;;;6.35;;
58681;SDS011;44460;40.162;18.294;2022-09-09T14:10:07;34.83;;;7.03;;
58681;SDS011;44460;40.162;18.294;2022-09-09T14:12:32;32.13;;;6.97;;
58681;SDS011;44460;40.162;18.294;2022-09-09T14:14:58;28.92;;;5.72;;
58681;SDS011;44460;40.162;18.294;2022-09-09T14:17:25;24.45;;;6.30;;
58681;SDS011;44460;40.162;18.294;2022-09-09T14:19:52;29.38;;;6.68;;
58681;SDS011;44460;40.162;18.294;2022-09-09T14:22:18;30.30;;;6.15;;
58681;SDS011;44460;40.162;18.294;2022-09-09T14:24:43;21.90;;;6.18;;
58681;SDS011;44460;40.162;18.294;2022-09-09T14:27:08;36.03;;;7.53;;
58681;SDS011;44460;40.162;18.294;2022-09-09T14:29:34;28.40;;;6.15;;
58681;SDS011;44460;40.162;18.294;2022-09-09T14:31:59;26.33;;;6.30;;
58681;SDS011;44460;40.162;18.294;2022-09-09T14:34:26;25.77;;;6.53;;
58681;SDS011;44460;40.162;18.294;2022-09-09T14:36:51;29.77;;;6.45;;
58681;SDS011;44460;40.162;18.294;2022-09-09T14:39:17;29.30;;;6.45;;
58681;SDS011;44460;40.162;18.294;2022-09-09T14:41:42;25.15;;;7.53;;
58681;SDS011;44460;40.162;18.294;2022-09-09T14:44:08;33.10;;;7.38;;
58681;SDS011;44460;40.162;18.294;2022-09-09T14:46:33;28.25;;;7.82;;
58681;SDS011;44460;40.162;18.294;2022-09-09T14:48:59;28.45;;;6.43;;
58681;SDS011;44460;40.162;18.294;2022-09-09T14:51:25;28.50;;;6.57;;
58681;SDS011;44460;40.162;18.294;2022-09-09T14:53:52;27.88;;;7.13;;
58681;SDS011;44460;40.162;18.294;2022-09-09T14:56:19;26.70;;;7.03;;
58681;SDS011;44460;40.162;18.294;2022-09-09T14:58:45;32.47;;;7.03;;
58681;SDS011;44460;40.162;18.294;2022-09-09T15:01:12;29.50;;;7.22;;
58681;SDS011;44460;40.162;18.294;2022-09-09T15:06:04;25.92;;;7.38;;
58681;SDS011;44460;40.162;18.294;2022-09-09T15:08:30;28.65;;;7.85;;
58681;SDS011;44460;40.162;18.294;2022-09-09T15:10:59;25.90;;;7.18;;
58681;SDS011;44460;40.162;18.294;2022-09-09T15:13:26;32.42;;;7.95;;
58681;SDS011;44460;40.162;18.294;2022-09-09T15:15:51;35.97;;;10.02;;
58681;SDS011;44460;40.162;18.294;2022-09-09T15:18:16;26.33;;;9.13;;
58681;SDS011;44460;40.162;18.294;2022-09-09T15:20:45;36.03;;;8.98;;
58681;SDS011;44460;40.162;18.294;2022-09-09T15:23:12;35.30;;;8.13;;
58681;SDS011;44460;40.162;18.294;2022-09-09T15:25:37;29.95;;;7.68;;
58681;SDS011;44460;40.162;18.294;2022-09-09T15:28:03;30.42;;;9.60;;
58681;SDS011;44460;40.162;18.294;2022-09-09T15:30:28;30.20;;;8.07;;
58681;SDS011;44460;40.162;18.294;2022-09-09T15:32:53;31.40;;;9.15;;
58681;SDS011;44460;40.162;18.294;2022-09-09T15:35:19;36.58;;;8.15;;
58681;SDS011;44460;40.162;18.294;2022-09-09T15:37:45;41.10;;;7.90;;
58681;SDS011;44460;40.162;18.294;2022-09-09T15:40:10;34.78;;;8.98;;
58681;SDS011;44460;40.162;18.294;2022-09-09T15:42:36;32.35;;;8.85;;
58681;SDS011;44460;40.162;18.294;2022-09-09T15:45:01;30.60;;;7.40;;
58681;SDS011;44460;40.162;18.294;2022-09-09T15:47:27;33.92;;;8.80;;
58681;SDS011;44460;40.162;18.294;2022-09-09T15:49:52;26.38;;;8.20;;
58681;SDS011;44460;40.162;18.294;2022-09-09T15:52:18;36.78;;;8.82;;
58681;SDS011;44460;40.162;18.294;2022-09-09T15:54:43;30.08;;;8.55;;
58681;SDS011;44460;40.162;18.294;2022-09-09T15:57:11;32.90;;;8.32;;
58681;SDS011;44460;40.162;18.294;2022-09-09T15:59:37;42.80;;;9.60;;
58681;SDS011;44460;40.162;18.294;2022-09-09T16:02:03;32.72;;;9.30;;
58681;SDS011;44460;40.162;18.294;2022-09-09T16:04:29;26.05;;;7.55;;
58681;SDS011;44460;40.162;18.294;2022-09-09T16:06:56;31.33;;;8.30;;
58681;SDS011;44460;40.162;18.294;2022-09-09T16:09:23;33.38;;;8.43;;
58681;SDS011;44460;40.162;18.294;2022-09-09T16:11:49;31.58;;;8.60;;
58681;SDS011;44460;40.162;18.294;2022-09-09T16:14:14;31.15;;;8.73;;
58681;SDS011;44460;40.162;18.294;2022-09-09T16:16:43;39.10;;;9.40;;
58681;SDS011;44460;40.162;18.294;2022-09-09T16:19:12;26.27;;;7.88;;
58681;SDS011;44460;40.162;18.294;2022-09-09T16:21:39;34.95;;;8.95;;
58681;SDS011;44460;40.162;18.294;2022-09-09T16:24:05;31.88;;;9.00;;
58681;SDS011;44460;40.162;18.294;2022-09-09T16:26:31;36.97;;;10.50;;
58681;SDS011;44460;40.162;18.294;2022-09-09T16:28:58;35.88;;;8.80;;
58681;SDS011;44460;40.162;18.294;2022-09-09T16:31:24;33.83;;;8.82;;
58681;SDS011;44460;40.162;18.294;2022-09-09T16:33:51;37.03;;;9.13;;
58681;SDS011;44460;40.162;18.294;2022-09-09T16:36:17;32.13;;;9.05;;
58681;SDS011;44460;40.162;18.294;2022-09-09T16:38:43;25.42;;;7.95;;
58681;SDS011;44460;40.162;18.294;2022-09-09T16:41:09;33.90;;;9.38;;
58681;SDS011;44460;40.162;18.294;2022-09-09T16:43:35;41.60;;;9.27;;
58681;SDS011;44460;40.162;18.294;2022-09-09T16:46:10;36.60;;;10.32;;
58681;SDS011;44460;40.162;18.294;2022-09-09T16:48:36;39.90;;;10.60;;
58681;SDS011;44460;40.162;18.294;2022-09-09T16:51:02;31.17;;;9.82;;
58681;SDS011;44460;40.162;18.294;2022-09-09T16:55:54;35.15;;;9.85;;
58681;SDS011;44460;40.162;18.294;2022-09-09T16:58:19;45.90;;;10.27;;
58681;SDS011;44460;40.162;18.294;2022-09-09T17:00:45;39.05;;;10.13;;
58681;SDS011;44460;40.162;18.294;2022-09-09T17:03:14;33.97;;;9.63;;
58681;SDS011;44460;40.162;18.294;2022-09-09T17:05:41;32.45;;;9.25;;
58681;SDS011;44460;40.162;18.294;2022-09-09T17:08:06;36.85;;;10.35;;
58681;SDS011;44460;40.162;18.294;2022-09-09T17:10:32;35.72;;;11.60;;
58681;SDS011;44460;40.162;18.294;2022-09-09T17:12:57;43.95;;;10.57;;
58681;SDS011;44460;40.162;18.294;2022-09-09T17:15:23;37.90;;;9.43;;
58681;SDS011;44460;40.162;18.294;2022-09-09T17:17:48;26.48;;;10.00;;
58681;SDS011;44460;40.162;18.294;2022-09-09T17:20:18;40.75;;;10.13;;
58681;SDS011;44460;40.162;18.294;2022-09-09T17:22:43;31.67;;;10.18;;
58681;SDS011;44460;40.162;18.294;2022-09-09T17:25:09;38.00;;;10.68;;